sensor_id;sensor_type;location;lat;lon;timestamp;pressure;altitude;pressure_sealevel;temperature;humidity
62333;BME280;48624;49.812;8.562;2022-12-18T00:01:36;101976.78;;;-9.49;99.12
62333;BME280;48624;49.812;8.562;2022-12-18T00:04:04;101981.31;;;-9.65;99.75
62333;BME280;48624;49.812;8.562;2022-12-18T00:06:30;101981.63;;;-9.78;99.63
62333;BME280;48624;49.812;8.562;2022-12-18T00:08:57;101981.22;;;-9.45;100.00
62333;BME280;48624;49.812;8.562;2022-12-18T00:11:25;101971.09;;;-9.63;99.68
62333;BME280;48624;49.812;8.562;2022-12-18T00:13:52;101962.00;;;-9.55;98.46
62333;BME280;48624;49.812;8.562;2022-12-18T00:16:21;101959.41;;;-9.56;97.98
62333;BME280;48624;49.812;8.562;2022-12-18T00:18:47;101968.72;;;-9.58;97.91
62333;BME280;48624;49.812;8.562;2022-12-18T00:21:13;101977.41;;;-9.55;97.28
62333;BME280;48624;49.812;8.562;2022-12-18T00:23:40;101987.75;;;-9.53;96.97
62333;BME280;48624;49.812;8.562;2022-12-18T00:26:11;101989.00;;;-9.65;97.99
62333;BME280;48624;49.812;8.562;2022-12-18T00:28:48;101995.25;;;-9.58;97.57
62333;BME280;48624;49.812;8.562;2022-12-18T00:31:21;101995.25;;;-9.58;97.61
62333;BME280;48624;49.812;8.562;2022-12-18T00:33:47;101990.94;;;-9.59;96.69
62333;BME280;48624;49.812;8.562;2022-12-18T00:36:18;101999.28;;;-9.65;97.00
62333;BME280;48624;49.812;8.562;2022-12-18T00:38:45;101981.44;;;-9.62;96.98
62333;BME280;48624;49.812;8.562;2022-12-18T00:41:12;101978.75;;;-9.65;96.53
62333;BME280;48624;49.812;8.562;2022-12-18T00:43:39;101978.78;;;-9.63;96.35
62333;BME280;48624;49.812;8.562;2022-12-18T00:46:04;101979.03;;;-9.57;95.91
62333;BME280;48624;49.812;8.562;2022-12-18T00:48:30;101981.31;;;-9.65;95.81
62333;BME280;48624;49.812;8.562;2022-12-18T00:50:55;101972.53;;;-9.70;96.67
62333;BME280;48624;49.812;8.562;2022-12-18T00:53:21;101973.81;;;-9.60;96.12
62333;BME280;48624;49.812;8.562;2022-12-18T00:55:46;101977.75;;;-9.68;95.72
62333;BME280;48624;49.812;8.562;2022-12-18T00:58:13;101970.06;;;-9.68;95.62
62333;BME280;48624;49.812;8.562;2022-12-18T01:00:39;101968.94;;;-9.75;95.89
62333;BME280;48624;49.812;8.562;2022-12-18T01:03:05;101974.00;;;-9.77;95.87
62333;BME280;48624;49.812;8.562;2022-12-18T01:05:31;101980.50;;;-9.64;94.70
62333;BME280;48624;49.812;8.562;2022-12-18T01:07:57;101988.25;;;-9.83;94.37
62333;BME280;48624;49.812;8.562;2022-12-18T01:10:23;101982.44;;;-9.79;94.29
62333;BME280;48624;49.812;8.562;2022-12-18T01:12:49;101981.19;;;-9.89;93.69
62333;BME280;48624;49.812;8.562;2022-12-18T01:15:15;101990.19;;;-9.99;93.73
62333;BME280;48624;49.812;8.562;2022-12-18T01:17:40;101973.47;;;-10.10;94.50
62333;BME280;48624;49.812;8.562;2022-12-18T01:20:06;101969.75;;;-10.38;93.89
62333;BME280;48624;49.812;8.562;2022-12-18T01:22:32;101972.09;;;-10.23;94.40
62333;BME280;48624;49.812;8.562;2022-12-18T01:24:57;101981.41;;;-10.25;94.01
62333;BME280;48624;49.812;8.562;2022-12-18T01:27:23;101993.28;;;-10.27;93.89
62333;BME280;48624;49.812;8.562;2022-12-18T01:29:49;101977.28;;;-10.22;93.40
62333;BME280;48624;49.812;8.562;2022-12-18T01:32:14;101969.25;;;-10.29;93.33
62333;BME280;48624;49.812;8.562;2022-12-18T01:34:40;101991.91;;;-10.39;93.44
62333;BME280;48624;49.812;8.562;2022-12-18T01:37:05;101999.69;;;-10.96;94.27
62333;BME280;48624;49.812;8.562;2022-12-18T01:39:31;102003.13;;;-10.96;93.66
62333;BME280;48624;49.812;8.562;2022-12-18T01:41:58;102010.19;;;-11.28;93.76
62333;BME280;48624;49.812;8.562;2022-12-18T01:47:43;102020.84;;;-11.55;94.59
62333;BME280;48624;49.812;8.562;2022-12-18T01:50:13;102016.84;;;-11.32;94.24
62333;BME280;48624;49.812;8.562;2022-12-18T01:52:47;102008.78;;;-11.21;93.92
62333;BME280;48624;49.812;8.562;2022-12-18T01:55:14;102006.25;;;-11.39;92.97
62333;BME280;48624;49.812;8.562;2022-12-18T01:57:41;102006.59;;;-11.32;93.25
62333;BME280;48624;49.812;8.562;2022-12-18T02:00:18;102006.81;;;-11.27;93.00
62333;BME280;48624;49.812;8.562;2022-12-18T02:02:45;102001.66;;;-11.29;92.61
62333;BME280;48624;49.812;8.562;2022-12-18T02:05:13;101995.13;;;-11.22;93.22
62333;BME280;48624;49.812;8.562;2022-12-18T02:10:19;102003.63;;;-11.23;93.47
62333;BME280;48624;49.812;8.562;2022-12-18T02:12:58;102002.00;;;-11.21;93.82
62333;BME280;48624;49.812;8.562;2022-12-18T02:15:32;102007.72;;;-11.26;93.51
62333;BME280;48624;49.812;8.562;2022-12-18T02:18:11;102006.44;;;-11.17;93.94
62333;BME280;48624;49.812;8.562;2022-12-18T02:28:31;101985.03;;;-11.19;94.63
62333;BME280;48624;49.812;8.562;2022-12-18T02:31:01;101983.56;;;-11.13;94.50
62333;BME280;48624;49.812;8.562;2022-12-18T02:33:28;101977.69;;;-11.11;94.26
62333;BME280;48624;49.812;8.562;2022-12-18T02:35:57;101976.97;;;-11.08;94.63
62333;BME280;48624;49.812;8.562;2022-12-18T02:38:24;101966.66;;;-11.10;94.25
62333;BME280;48624;49.812;8.562;2022-12-18T02:40:51;101964.91;;;-11.11;94.09
62333;BME280;48624;49.812;8.562;2022-12-18T02:43:18;101957.31;;;-10.90;93.62
62333;BME280;48624;49.812;8.562;2022-12-18T02:45:56;101943.88;;;-10.85;93.31
62333;BME280;48624;49.812;8.562;2022-12-18T02:48:33;101942.84;;;-10.89;92.51
62333;BME280;48624;49.812;8.562;2022-12-18T02:53:40;101948.50;;;-10.77;91.94
62333;BME280;48624;49.812;8.562;2022-12-18T02:56:18;101948.56;;;-10.95;91.57
62333;BME280;48624;49.812;8.562;2022-12-18T02:58:58;101961.50;;;-10.92;92.15
62333;BME280;48624;49.812;8.562;2022-12-18T03:04:14;101963.63;;;-11.39;91.91
62333;BME280;48624;49.812;8.562;2022-12-18T03:06:42;101965.31;;;-11.58;92.51
62333;BME280;48624;49.812;8.562;2022-12-18T03:09:13;101978.19;;;-11.56;91.39
62333;BME280;48624;49.812;8.562;2022-12-18T03:11:41;101981.38;;;-11.78;90.78
62333;BME280;48624;49.812;8.562;2022-12-18T03:14:30;101994.47;;;-11.72;91.36
62333;BME280;48624;49.812;8.562;2022-12-18T03:17:01;101981.59;;;-11.92;92.12
62333;BME280;48624;49.812;8.562;2022-12-18T03:19:29;101978.47;;;-11.86;92.25
62333;BME280;48624;49.812;8.562;2022-12-18T03:21:58;101981.03;;;-11.86;91.91
62333;BME280;48624;49.812;8.562;2022-12-18T03:24:28;101990.53;;;-11.83;92.17
62333;BME280;48624;49.812;8.562;2022-12-18T03:27:01;101996.44;;;-11.66;91.62
62333;BME280;48624;49.812;8.562;2022-12-18T03:29:34;101985.19;;;-11.88;93.29
62333;BME280;48624;49.812;8.562;2022-12-18T03:32:06;101982.91;;;-11.82;93.47
62333;BME280;48624;49.812;8.562;2022-12-18T03:34:36;101973.84;;;-11.93;93.54
62333;BME280;48624;49.812;8.562;2022-12-18T03:37:03;101976.44;;;-11.75;92.92
62333;BME280;48624;49.812;8.562;2022-12-18T03:39:30;101967.00;;;-11.58;92.39
62333;BME280;48624;49.812;8.562;2022-12-18T03:49:34;101957.78;;;-11.73;92.02
62333;BME280;48624;49.812;8.562;2022-12-18T03:52:09;101947.69;;;-11.88;93.11
62333;BME280;48624;49.812;8.562;2022-12-18T03:54:36;101949.75;;;-11.80;93.48
62333;BME280;48624;49.812;8.562;2022-12-18T03:57:10;101958.09;;;-11.66;93.18
62333;BME280;48624;49.812;8.562;2022-12-18T03:59:37;101957.38;;;-11.64;92.16
62333;BME280;48624;49.812;8.562;2022-12-18T04:02:04;101954.28;;;-11.75;92.42
62333;BME280;48624;49.812;8.562;2022-12-18T04:04:33;101946.13;;;-11.67;92.93
62333;BME280;48624;49.812;8.562;2022-12-18T04:06:59;101958.41;;;-11.60;92.29
62333;BME280;48624;49.812;8.562;2022-12-18T04:09:25;101962.00;;;-11.91;92.39
62333;BME280;48624;49.812;8.562;2022-12-18T04:11:51;101953.34;;;-11.95;92.22
62333;BME280;48624;49.812;8.562;2022-12-18T04:14:17;101958.16;;;-11.83;91.37
62333;BME280;48624;49.812;8.562;2022-12-18T04:16:42;101967.88;;;-11.94;90.98
62333;BME280;48624;49.812;8.562;2022-12-18T04:19:07;101966.03;;;-11.78;90.77
62333;BME280;48624;49.812;8.562;2022-12-18T04:21:33;101962.75;;;-11.58;88.93
62333;BME280;48624;49.812;8.562;2022-12-18T04:23:58;101964.06;;;-11.84;89.06
62333;BME280;48624;49.812;8.562;2022-12-18T04:26:23;101964.81;;;-12.05;90.63
62333;BME280;48624;49.812;8.562;2022-12-18T04:28:49;101960.50;;;-12.06;90.51
62333;BME280;48624;49.812;8.562;2022-12-18T04:31:14;101961.66;;;-11.99;91.13
62333;BME280;48624;49.812;8.562;2022-12-18T04:33:39;101959.19;;;-11.98;91.18
62333;BME280;48624;49.812;8.562;2022-12-18T04:36:05;101963.13;;;-11.86;91.52
62333;BME280;48624;49.812;8.562;2022-12-18T04:38:31;101951.00;;;-12.08;92.05
62333;BME280;48624;49.812;8.562;2022-12-18T04:40:56;101945.56;;;-12.15;92.88
62333;BME280;48624;49.812;8.562;2022-12-18T04:43:21;101944.00;;;-12.13;92.97
62333;BME280;48624;49.812;8.562;2022-12-18T04:45:47;101943.56;;;-12.04;93.25
62333;BME280;48624;49.812;8.562;2022-12-18T04:48:12;101938.22;;;-12.08;93.00
62333;BME280;48624;49.812;8.562;2022-12-18T04:50:37;101940.47;;;-11.78;91.89
62333;BME280;48624;49.812;8.562;2022-12-18T04:53:03;101945.38;;;-12.01;92.70
62333;BME280;48624;49.812;8.562;2022-12-18T04:55:28;101941.84;;;-12.21;93.97
62333;BME280;48624;49.812;8.562;2022-12-18T04:57:54;101959.69;;;-12.05;94.20
62333;BME280;48624;49.812;8.562;2022-12-18T05:00:20;101971.16;;;-11.78;91.90
62333;BME280;48624;49.812;8.562;2022-12-18T05:02:45;101960.34;;;-11.91;91.79
62333;BME280;48624;49.812;8.562;2022-12-18T05:05:11;101971.06;;;-11.98;91.52
62333;BME280;48624;49.812;8.562;2022-12-18T05:07:36;101975.91;;;-11.86;89.75
62333;BME280;48624;49.812;8.562;2022-12-18T05:10:02;101968.31;;;-12.03;90.02
62333;BME280;48624;49.812;8.562;2022-12-18T05:12:27;101977.38;;;-12.09;90.22
62333;BME280;48624;49.812;8.562;2022-12-18T05:14:52;101981.03;;;-12.04;90.02
62333;BME280;48624;49.812;8.562;2022-12-18T05:17:18;101983.41;;;-12.07;91.28
62333;BME280;48624;49.812;8.562;2022-12-18T05:19:43;101981.09;;;-12.03;92.21
62333;BME280;48624;49.812;8.562;2022-12-18T05:22:08;101978.34;;;-12.24;93.28
62333;BME280;48624;49.812;8.562;2022-12-18T05:24:34;101987.22;;;-12.34;93.10
62333;BME280;48624;49.812;8.562;2022-12-18T05:26:59;102002.03;;;-12.10;93.74
62333;BME280;48624;49.812;8.562;2022-12-18T05:29:24;101993.97;;;-12.18;93.85
62333;BME280;48624;49.812;8.562;2022-12-18T05:31:50;101994.66;;;-12.22;94.46
62333;BME280;48624;49.812;8.562;2022-12-18T05:34:15;101984.94;;;-12.11;94.02
62333;BME280;48624;49.812;8.562;2022-12-18T05:36:41;101982.34;;;-12.13;94.05
62333;BME280;48624;49.812;8.562;2022-12-18T05:39:06;101979.78;;;-12.13;94.72
62333;BME280;48624;49.812;8.562;2022-12-18T05:41:32;101983.03;;;-11.97;93.69
62333;BME280;48624;49.812;8.562;2022-12-18T05:43:58;101984.41;;;-12.22;94.68
62333;BME280;48624;49.812;8.562;2022-12-18T05:46:23;101974.88;;;-11.90;92.87
62333;BME280;48624;49.812;8.562;2022-12-18T05:48:49;101972.41;;;-12.06;93.04
62333;BME280;48624;49.812;8.562;2022-12-18T05:51:19;101965.16;;;-11.97;92.91
62333;BME280;48624;49.812;8.562;2022-12-18T05:53:45;101954.81;;;-12.18;92.99
62333;BME280;48624;49.812;8.562;2022-12-18T05:56:14;101961.47;;;-12.20;92.82
62333;BME280;48624;49.812;8.562;2022-12-18T05:58:40;101961.03;;;-12.30;93.78
62333;BME280;48624;49.812;8.562;2022-12-18T06:01:14;101962.13;;;-12.08;93.54
62333;BME280;48624;49.812;8.562;2022-12-18T06:03:40;101956.00;;;-12.28;94.09
62333;BME280;48624;49.812;8.562;2022-12-18T06:06:19;101963.00;;;-12.24;94.51
62333;BME280;48624;49.812;8.562;2022-12-18T06:08:45;101977.47;;;-12.24;94.86
62333;BME280;48624;49.812;8.562;2022-12-18T06:11:11;101975.72;;;-12.25;94.21
62333;BME280;48624;49.812;8.562;2022-12-18T06:13:37;101978.41;;;-12.06;93.81
62333;BME280;48624;49.812;8.562;2022-12-18T06:16:04;101987.13;;;-12.01;92.99
62333;BME280;48624;49.812;8.562;2022-12-18T06:18:31;101988.75;;;-12.03;91.43
62333;BME280;48624;49.812;8.562;2022-12-18T06:20:57;101995.59;;;-12.20;90.39
62333;BME280;48624;49.812;8.562;2022-12-18T06:23:23;101990.22;;;-12.08;89.75
62333;BME280;48624;49.812;8.562;2022-12-18T06:25:49;102000.63;;;-12.21;88.67
62333;BME280;48624;49.812;8.562;2022-12-18T06:28:15;102000.56;;;-12.23;89.12
62333;BME280;48624;49.812;8.562;2022-12-18T06:30:43;102010.59;;;-12.26;89.27
62333;BME280;48624;49.812;8.562;2022-12-18T06:33:08;102019.88;;;-12.28;89.47
62333;BME280;48624;49.812;8.562;2022-12-18T06:35:34;102010.44;;;-12.29;90.09
62333;BME280;48624;49.812;8.562;2022-12-18T06:38:01;102024.13;;;-12.45;90.20
62333;BME280;48624;49.812;8.562;2022-12-18T06:40:26;102036.88;;;-12.45;90.95
62333;BME280;48624;49.812;8.562;2022-12-18T06:42:52;102032.31;;;-12.34;89.97
62333;BME280;48624;49.812;8.562;2022-12-18T06:45:17;102031.94;;;-12.42;91.41
62333;BME280;48624;49.812;8.562;2022-12-18T06:47:43;102045.59;;;-12.42;92.20
62333;BME280;48624;49.812;8.562;2022-12-18T06:50:08;102037.59;;;-12.31;92.20
62333;BME280;48624;49.812;8.562;2022-12-18T06:52:34;102045.81;;;-12.37;92.76
62333;BME280;48624;49.812;8.562;2022-12-18T06:54:59;102046.06;;;-12.32;93.35
62333;BME280;48624;49.812;8.562;2022-12-18T06:57:25;102040.53;;;-12.40;94.19
62333;BME280;48624;49.812;8.562;2022-12-18T06:59:50;102046.31;;;-12.28;94.58
62333;BME280;48624;49.812;8.562;2022-12-18T07:02:16;102058.41;;;-12.40;95.74
62333;BME280;48624;49.812;8.562;2022-12-18T07:04:42;102046.84;;;-12.33;96.87
62333;BME280;48624;49.812;8.562;2022-12-18T07:07:08;102046.13;;;-12.14;96.30
62333;BME280;48624;49.812;8.562;2022-12-18T07:09:34;102058.66;;;-12.19;96.77
62333;BME280;48624;49.812;8.562;2022-12-18T07:12:00;102050.09;;;-12.19;97.91
62333;BME280;48624;49.812;8.562;2022-12-18T07:14:25;102058.19;;;-11.93;97.57
62333;BME280;48624;49.812;8.562;2022-12-18T07:16:50;102062.09;;;-11.83;98.08
62333;BME280;48624;49.812;8.562;2022-12-18T07:19:16;102060.63;;;-11.78;99.07
62333;BME280;48624;49.812;8.562;2022-12-18T07:21:41;102057.72;;;-11.68;99.60
62333;BME280;48624;49.812;8.562;2022-12-18T07:24:07;102058.72;;;-11.66;99.57
62333;BME280;48624;49.812;8.562;2022-12-18T07:26:32;102054.59;;;-11.27;99.55
62333;BME280;48624;49.812;8.562;2022-12-18T07:28:58;102049.38;;;-11.29;98.19
62333;BME280;48624;49.812;8.562;2022-12-18T07:31:24;102052.72;;;-11.12;99.23
62333;BME280;48624;49.812;8.562;2022-12-18T07:33:50;102046.41;;;-11.01;98.78
62333;BME280;48624;49.812;8.562;2022-12-18T07:36:16;102050.00;;;-10.97;98.38
62333;BME280;48624;49.812;8.562;2022-12-18T07:38:42;102045.88;;;-10.95;99.86
62333;BME280;48624;49.812;8.562;2022-12-18T07:41:10;102043.81;;;-11.02;100.00
62333;BME280;48624;49.812;8.562;2022-12-18T07:43:36;102044.28;;;-10.91;100.00
62333;BME280;48624;49.812;8.562;2022-12-18T07:46:02;102042.53;;;-10.92;100.00
62333;BME280;48624;49.812;8.562;2022-12-18T07:48:28;102043.34;;;-10.75;100.00
62333;BME280;48624;49.812;8.562;2022-12-18T07:51:04;102039.06;;;-10.75;100.00
62333;BME280;48624;49.812;8.562;2022-12-18T07:53:31;102052.47;;;-10.62;100.00
62333;BME280;48624;49.812;8.562;2022-12-18T07:56:00;102055.19;;;-10.57;100.00
62333;BME280;48624;49.812;8.562;2022-12-18T07:58:27;102060.66;;;-10.69;100.00
62333;BME280;48624;49.812;8.562;2022-12-18T08:00:52;102063.16;;;-10.51;100.00
62333;BME280;48624;49.812;8.562;2022-12-18T08:03:18;102060.31;;;-10.57;100.00
62333;BME280;48624;49.812;8.562;2022-12-18T08:05:44;102072.94;;;-10.23;100.00
62333;BME280;48624;49.812;8.562;2022-12-18T08:08:10;102068.97;;;-10.36;100.00
62333;BME280;48624;49.812;8.562;2022-12-18T08:10:35;102074.41;;;-10.28;100.00
62333;BME280;48624;49.812;8.562;2022-12-18T08:13:01;102081.75;;;-10.16;99.96
62333;BME280;48624;49.812;8.562;2022-12-18T08:15:26;102074.06;;;-10.16;100.00
62333;BME280;48624;49.812;8.562;2022-12-18T08:17:56;102075.63;;;-10.00;99.78
62333;BME280;48624;49.812;8.562;2022-12-18T08:20:21;102073.06;;;-10.00;100.00
62333;BME280;48624;49.812;8.562;2022-12-18T08:22:46;102072.84;;;-10.05;100.00
62333;BME280;48624;49.812;8.562;2022-12-18T08:25:12;102075.28;;;-9.88;99.77
62333;BME280;48624;49.812;8.562;2022-12-18T08:27:37;102079.31;;;-9.52;99.10
62333;BME280;48624;49.812;8.562;2022-12-18T08:30:03;102075.50;;;-9.82;99.33
62333;BME280;48624;49.812;8.562;2022-12-18T08:32:29;102070.34;;;-9.83;98.76
62333;BME280;48624;49.812;8.562;2022-12-18T08:34:54;102074.97;;;-9.75;98.71
62333;BME280;48624;49.812;8.562;2022-12-18T08:37:19;102076.53;;;-9.57;98.60
62333;BME280;48624;49.812;8.562;2022-12-18T08:39:46;102070.41;;;-9.61;99.23
62333;BME280;48624;49.812;8.562;2022-12-18T08:42:11;102065.16;;;-9.64;99.16
62333;BME280;48624;49.812;8.562;2022-12-18T08:44:55;102062.16;;;-9.53;98.37
62333;BME280;48624;49.812;8.562;2022-12-18T08:47:21;102049.94;;;-9.59;99.35
62333;BME280;48624;49.812;8.562;2022-12-18T08:49:46;102052.44;;;-9.39;98.69
62333;BME280;48624;49.812;8.562;2022-12-18T08:52:11;102049.50;;;-9.27;99.38
62333;BME280;48624;49.812;8.562;2022-12-18T08:54:37;102052.00;;;-9.29;98.54
62333;BME280;48624;49.812;8.562;2022-12-18T08:57:02;102046.56;;;-9.37;98.89
62333;BME280;48624;49.812;8.562;2022-12-18T08:59:29;102049.97;;;-9.38;99.06
62333;BME280;48624;49.812;8.562;2022-12-18T09:01:56;102044.00;;;-9.58;98.60
62333;BME280;48624;49.812;8.562;2022-12-18T09:04:22;102037.78;;;-9.21;98.87
62333;BME280;48624;49.812;8.562;2022-12-18T09:06:49;102036.22;;;-9.17;97.47
62333;BME280;48624;49.812;8.562;2022-12-18T09:09:17;102030.47;;;-9.32;97.21
62333;BME280;48624;49.812;8.562;2022-12-18T09:11:42;102027.59;;;-9.19;97.63
62333;BME280;48624;49.812;8.562;2022-12-18T09:14:09;102034.41;;;-9.20;97.54
62333;BME280;48624;49.812;8.562;2022-12-18T09:16:34;102031.34;;;-9.32;97.63
62333;BME280;48624;49.812;8.562;2022-12-18T09:19:02;102034.72;;;-8.89;98.90
62333;BME280;48624;49.812;8.562;2022-12-18T09:21:34;102038.78;;;-8.71;96.61
62333;BME280;48624;49.812;8.562;2022-12-18T09:24:00;102051.06;;;-8.87;97.04
62333;BME280;48624;49.812;8.562;2022-12-18T09:26:26;102057.25;;;-8.82;96.69
62333;BME280;48624;49.812;8.562;2022-12-18T09:28:52;102049.81;;;-9.20;97.01
62333;BME280;48624;49.812;8.562;2022-12-18T09:31:19;102058.22;;;-8.55;96.54
62333;BME280;48624;49.812;8.562;2022-12-18T09:33:45;102057.84;;;-9.54;97.26
62333;BME280;48624;49.812;8.562;2022-12-18T09:36:14;102062.00;;;-9.35;97.48
62333;BME280;48624;49.812;8.562;2022-12-18T09:38:40;102068.16;;;-8.65;97.46
62333;BME280;48624;49.812;8.562;2022-12-18T09:41:19;102066.53;;;-9.29;96.70
62333;BME280;48624;49.812;8.562;2022-12-18T09:43:50;102046.22;;;-9.23;98.24
62333;BME280;48624;49.812;8.562;2022-12-18T09:46:23;102049.25;;;-9.55;98.63
62333;BME280;48624;49.812;8.562;2022-12-18T09:48:58;102049.66;;;-9.67;98.88
62333;BME280;48624;49.812;8.562;2022-12-18T09:51:50;102050.25;;;-9.51;98.77
62333;BME280;48624;49.812;8.562;2022-12-18T09:54:22;102063.66;;;-9.37;99.13
62333;BME280;48624;49.812;8.562;2022-12-18T09:56:51;102064.63;;;-9.12;99.06
62333;BME280;48624;49.812;8.562;2022-12-18T09:59:21;102062.88;;;-9.13;98.25
62333;BME280;48624;49.812;8.562;2022-12-18T10:01:48;102064.19;;;-9.02;98.70
62333;BME280;48624;49.812;8.562;2022-12-18T10:04:13;102057.28;;;-8.80;98.92
62333;BME280;48624;49.812;8.562;2022-12-18T10:09:23;102060.84;;;-8.76;97.72
62333;BME280;48624;49.812;8.562;2022-12-18T10:12:08;102060.38;;;-8.42;97.50
62333;BME280;48624;49.812;8.562;2022-12-18T10:20:10;102074.28;;;-8.37;97.80
62333;BME280;48624;49.812;8.562;2022-12-18T10:26:08;102050.84;;;-7.70;97.72
62333;BME280;48624;49.812;8.562;2022-12-18T10:28:38;102042.06;;;-7.76;96.63
62333;BME280;48624;49.812;8.562;2022-12-18T10:31:16;102039.47;;;-7.76;97.29
62333;BME280;48624;49.812;8.562;2022-12-18T10:33:44;102032.50;;;-7.26;97.19
62333;BME280;48624;49.812;8.562;2022-12-18T10:36:09;102038.41;;;-7.30;96.02
62333;BME280;48624;49.812;8.562;2022-12-18T10:38:35;102032.94;;;-7.12;95.38
62333;BME280;48624;49.812;8.562;2022-12-18T10:41:03;102029.81;;;-7.30;94.59
62333;BME280;48624;49.812;8.562;2022-12-18T10:43:30;102023.66;;;-7.06;94.59
62333;BME280;48624;49.812;8.562;2022-12-18T10:46:02;102021.59;;;-7.18;94.79
62333;BME280;48624;49.812;8.562;2022-12-18T10:48:31;102031.88;;;-7.18;95.06
62333;BME280;48624;49.812;8.562;2022-12-18T10:50:59;102032.16;;;-6.81;93.92
62333;BME280;48624;49.812;8.562;2022-12-18T10:53:27;102030.00;;;-6.35;93.61
62333;BME280;48624;49.812;8.562;2022-12-18T10:55:55;102040.63;;;-6.24;93.61
62333;BME280;48624;49.812;8.562;2022-12-18T10:58:30;102041.09;;;-5.72;93.81
62333;BME280;48624;49.812;8.562;2022-12-18T11:01:12;102026.59;;;-6.01;92.17
62333;BME280;48624;49.812;8.562;2022-12-18T11:06:18;102038.66;;;-5.66;91.24
62333;BME280;48624;49.812;8.562;2022-12-18T11:08:57;102027.72;;;-5.89;90.46
62333;BME280;48624;49.812;8.562;2022-12-18T11:11:24;102032.00;;;-5.91;90.58
62333;BME280;48624;49.812;8.562;2022-12-18T11:13:58;102029.78;;;-6.11;90.70
62333;BME280;48624;49.812;8.562;2022-12-18T11:16:25;102033.72;;;-5.92;90.74
62333;BME280;48624;49.812;8.562;2022-12-18T11:18:50;102029.72;;;-5.79;90.08
62333;BME280;48624;49.812;8.562;2022-12-18T11:21:16;102025.16;;;-5.89;90.16
62333;BME280;48624;49.812;8.562;2022-12-18T11:23:52;102024.91;;;-5.99;90.26
62333;BME280;48624;49.812;8.562;2022-12-18T11:26:18;102017.59;;;-5.46;90.26
62333;BME280;48624;49.812;8.562;2022-12-18T11:28:52;102032.69;;;-5.26;90.44
62333;BME280;48624;49.812;8.562;2022-12-18T11:31:32;102040.38;;;-5.31;88.99
62333;BME280;48624;49.812;8.562;2022-12-18T11:34:21;102045.03;;;-5.51;89.67
62333;BME280;48624;49.812;8.562;2022-12-18T11:36:48;102034.84;;;-5.80;89.58
62333;BME280;48624;49.812;8.562;2022-12-18T11:39:27;102027.59;;;-5.95;88.56
62333;BME280;48624;49.812;8.562;2022-12-18T11:42:09;102029.34;;;-5.94;89.37
62333;BME280;48624;49.812;8.562;2022-12-18T11:44:48;102028.31;;;-5.66;90.67
62333;BME280;48624;49.812;8.562;2022-12-18T11:50:16;102019.59;;;-5.71;89.46
62333;BME280;48624;49.812;8.562;2022-12-18T11:52:42;102004.63;;;-6.20;89.56
62333;BME280;48624;49.812;8.562;2022-12-18T11:55:12;102003.63;;;-6.25;89.73
62333;BME280;48624;49.812;8.562;2022-12-18T12:00:23;102007.13;;;-5.88;89.65
62333;BME280;48624;49.812;8.562;2022-12-18T12:03:22;102015.78;;;-5.86;89.57
62333;BME280;48624;49.812;8.562;2022-12-18T12:08:47;102020.06;;;-5.51;89.28
62333;BME280;48624;49.812;8.562;2022-12-18T12:17:23;102013.47;;;-5.39;87.19
62333;BME280;48624;49.812;8.562;2022-12-18T12:23:02;102025.41;;;-5.06;86.79
62333;BME280;48624;49.812;8.562;2022-12-18T12:25:41;102019.19;;;-5.15;87.10
62333;BME280;48624;49.812;8.562;2022-12-18T12:33:56;102007.88;;;-5.20;86.83
62333;BME280;48624;49.812;8.562;2022-12-18T12:36:36;101994.97;;;-4.78;86.28
62333;BME280;48624;49.812;8.562;2022-12-18T12:39:09;101995.81;;;-5.21;86.00
62333;BME280;48624;49.812;8.562;2022-12-18T12:41:38;102001.13;;;-4.71;85.97
62333;BME280;48624;49.812;8.562;2022-12-18T12:44:30;101986.22;;;-4.85;85.28
62333;BME280;48624;49.812;8.562;2022-12-18T12:47:00;101987.91;;;-4.85;85.31
62333;BME280;48624;49.812;8.562;2022-12-18T12:49:31;101994.03;;;-4.82;86.10
62333;BME280;48624;49.812;8.562;2022-12-18T12:52:07;101998.31;;;-4.84;85.65
62333;BME280;48624;49.812;8.562;2022-12-18T12:54:36;101999.84;;;-5.32;86.50
62333;BME280;48624;49.812;8.562;2022-12-18T13:00:12;101984.44;;;-4.44;85.48
62333;BME280;48624;49.812;8.562;2022-12-18T13:02:49;101989.19;;;-4.66;84.57
62333;BME280;48624;49.812;8.562;2022-12-18T13:05:27;101980.91;;;-4.93;84.63
62333;BME280;48624;49.812;8.562;2022-12-18T13:07:59;101954.16;;;-5.33;85.92
62333;BME280;48624;49.812;8.562;2022-12-18T13:13:07;101941.34;;;-4.89;87.38
62333;BME280;48624;49.812;8.562;2022-12-18T13:15:41;101953.38;;;-4.89;87.01
62333;BME280;48624;49.812;8.562;2022-12-18T13:20:36;101932.06;;;-4.77;87.83
62333;BME280;48624;49.812;8.562;2022-12-18T13:25:56;101931.56;;;-4.57;86.51
62333;BME280;48624;49.812;8.562;2022-12-18T13:34:24;101918.97;;;-4.87;86.90
62333;BME280;48624;49.812;8.562;2022-12-18T13:36:52;101906.47;;;-4.63;86.49
62333;BME280;48624;49.812;8.562;2022-12-18T13:41:46;101907.94;;;-4.76;86.31
62333;BME280;48624;49.812;8.562;2022-12-18T13:44:26;101909.22;;;-5.00;86.99
62333;BME280;48624;49.812;8.562;2022-12-18T13:46:54;101903.81;;;-5.11;88.56
62333;BME280;48624;49.812;8.562;2022-12-18T13:49:40;101903.59;;;-5.22;89.10
62333;BME280;48624;49.812;8.562;2022-12-18T13:52:26;101910.53;;;-5.19;90.35
62333;BME280;48624;49.812;8.562;2022-12-18T13:54:57;101898.97;;;-5.37;90.81
62333;BME280;48624;49.812;8.562;2022-12-18T13:59:56;101904.44;;;-5.23;91.92
62333;BME280;48624;49.812;8.562;2022-12-18T14:02:27;101904.97;;;-5.39;92.13
62333;BME280;48624;49.812;8.562;2022-12-18T14:04:54;101899.44;;;-5.15;92.85
62333;BME280;48624;49.812;8.562;2022-12-18T14:07:25;101887.03;;;-5.32;92.56
62333;BME280;48624;49.812;8.562;2022-12-18T14:09:58;101881.38;;;-5.13;92.25
62333;BME280;48624;49.812;8.562;2022-12-18T14:12:28;101891.31;;;-5.32;92.86
62333;BME280;48624;49.812;8.562;2022-12-18T14:15:35;101887.88;;;-5.33;92.83
62333;BME280;48624;49.812;8.562;2022-12-18T14:20:50;101883.56;;;-5.32;93.75
62333;BME280;48624;49.812;8.562;2022-12-18T14:23:37;101884.19;;;-5.03;93.38